sensor_id;sensor_type;location;lat;lon;timestamp;P1;durP1;ratioP1;P2;durP2;ratioP2
4756;SDS011;2392;52.578;13.426;2022-08-01T00:00:48;4.27;;;3.97;;
4756;SDS011;2392;52.578;13.426;2022-08-01T00:03:15;4.23;;;3.90;;
4756;SDS011;2392;52.578;13.426;2022-08-01T00:05:42;4.50;;;4.20;;
4756;SDS011;2392;52.578;13.426;2022-08-01T00:08:10;4.60;;;4.20;;
4756;SDS011;2392;52.578;13.426;2022-08-01T00:10:37;4.43;;;4.13;;
4756;SDS011;2392;52.578;13.426;2022-08-01T00:13:04;4.60;;;4.20;;
4756;SDS011;2392;52.578;13.426;2022-08-01T00:15:31;7.40;;;3.80;;
4756;SDS011;2392;52.578;13.426;2022-08-01T00:18:00;5.73;;;4.37;;
4756;SDS011;2392;52.578;13.426;2022-08-01T00:20:27;5.23;;;4.70;;
4756;SDS011;2392;52.578;13.426;2022-08-01T00:22:54;5.33;;;4.67;;
4756;SDS011;2392;52.578;13.426;2022-08-01T00:25:21;5.13;;;4.27;;
4756;SDS011;2392;52.578;13.426;2022-08-01T00:27:47;5.00;;;4.20;;
4756;SDS011;2392;52.578;13.426;2022-08-01T00:30:14;4.63;;;4.17;;
4756;SDS011;2392;52.578;13.426;2022-08-01T00:32:41;5.37;;;4.50;;
4756;SDS011;2392;52.578;13.426;2022-08-01T00:35:10;5.00;;;4.70;;
4756;SDS011;2392;52.578;13.426;2022-08-01T00:37:38;7.77;;;5.47;;
4756;SDS011;2392;52.578;13.426;2022-08-01T00:40:06;5.73;;;5.23;;
4756;SDS011;2392;52.578;13.426;2022-08-01T00:42:33;5.40;;;5.00;;
4756;SDS011;2392;52.578;13.426;2022-08-01T00:45:00;6.20;;;5.00;;
4756;SDS011;2392;52.578;13.426;2022-08-01T00:47:27;5.50;;;5.00;;
4756;SDS011;2392;52.578;13.426;2022-08-01T00:49:54;12.13;;;5.30;;
4756;SDS011;2392;52.578;13.426;2022-08-01T00:52:22;5.30;;;4.90;;
4756;SDS011;2392;52.578;13.426;2022-08-01T00:54:49;5.70;;;5.10;;
4756;SDS011;2392;52.578;13.426;2022-08-01T00:57:17;4.57;;;4.17;;
4756;SDS011;2392;52.578;13.426;2022-08-01T00:59:44;5.33;;;4.83;;
4756;SDS011;2392;52.578;13.426;2022-08-01T01:02:11;7.10;;;4.77;;
4756;SDS011;2392;52.578;13.426;2022-08-01T01:04:38;5.07;;;4.60;;
4756;SDS011;2392;52.578;13.426;2022-08-01T01:07:06;4.77;;;4.40;;
4756;SDS011;2392;52.578;13.426;2022-08-01T01:09:39;6.00;;;5.30;;
4756;SDS011;2392;52.578;13.426;2022-08-01T01:12:16;6.23;;;4.67;;
4756;SDS011;2392;52.578;13.426;2022-08-01T01:14:51;5.17;;;4.77;;
4756;SDS011;2392;52.578;13.426;2022-08-01T01:17:24;4.97;;;4.47;;
4756;SDS011;2392;52.578;13.426;2022-08-01T01:19:59;7.50;;;4.80;;
4756;SDS011;2392;52.578;13.426;2022-08-01T01:22:39;4.97;;;4.57;;
4756;SDS011;2392;52.578;13.426;2022-08-01T01:25:26;5.73;;;5.13;;
4756;SDS011;2392;52.578;13.426;2022-08-01T01:28:08;4.50;;;4.20;;
4756;SDS011;2392;52.578;13.426;2022-08-01T01:30:43;6.20;;;5.10;;
4756;SDS011;2392;52.578;13.426;2022-08-01T01:33:13;5.53;;;5.10;;
4756;SDS011;2392;52.578;13.426;2022-08-01T01:35:44;5.43;;;4.80;;
4756;SDS011;2392;52.578;13.426;2022-08-01T01:38:14;5.80;;;5.30;;
4756;SDS011;2392;52.578;13.426;2022-08-01T01:40:44;5.20;;;4.37;;
4756;SDS011;2392;52.578;13.426;2022-08-01T01:43:12;5.60;;;4.47;;
4756;SDS011;2392;52.578;13.426;2022-08-01T01:45:42;5.87;;;5.37;;
4756;SDS011;2392;52.578;13.426;2022-08-01T01:48:13;5.30;;;5.00;;
4756;SDS011;2392;52.578;13.426;2022-08-01T01:50:43;5.20;;;4.80;;
4756;SDS011;2392;52.578;13.426;2022-08-01T01:53:12;5.40;;;4.90;;
4756;SDS011;2392;52.578;13.426;2022-08-01T01:55:41;4.90;;;4.60;;
4756;SDS011;2392;52.578;13.426;2022-08-01T01:58:12;5.47;;;4.90;;
4756;SDS011;2392;52.578;13.426;2022-08-01T02:00:42;7.33;;;5.33;;
4756;SDS011;2392;52.578;13.426;2022-08-01T02:03:11;5.83;;;5.23;;
4756;SDS011;2392;52.578;13.426;2022-08-01T02:05:39;4.97;;;4.57;;
4756;SDS011;2392;52.578;13.426;2022-08-01T02:08:08;6.70;;;4.70;;
4756;SDS011;2392;52.578;13.426;2022-08-01T02:10:38;9.07;;;5.10;;
4756;SDS011;2392;52.578;13.426;2022-08-01T02:13:05;5.00;;;4.60;;
4756;SDS011;2392;52.578;13.426;2022-08-01T02:15:34;8.80;;;5.20;;
4756;SDS011;2392;52.578;13.426;2022-08-01T02:18:05;7.43;;;4.93;;
4756;SDS011;2392;52.578;13.426;2022-08-01T02:20:33;6.30;;;5.10;;
4756;SDS011;2392;52.578;13.426;2022-08-01T02:23:06;5.13;;;4.70;;
4756;SDS011;2392;52.578;13.426;2022-08-01T02:25:38;5.13;;;4.63;;
4756;SDS011;2392;52.578;13.426;2022-08-01T02:28:09;5.10;;;4.70;;
4756;SDS011;2392;52.578;13.426;2022-08-01T02:30:41;6.73;;;4.53;;
4756;SDS011;2392;52.578;13.426;2022-08-01T02:33:15;5.27;;;4.70;;
4756;SDS011;2392;52.578;13.426;2022-08-01T02:35:46;5.37;;;4.97;;
4756;SDS011;2392;52.578;13.426;2022-08-01T02:38:16;5.87;;;5.47;;
4756;SDS011;2392;52.578;13.426;2022-08-01T02:40:45;4.73;;;4.43;;
4756;SDS011;2392;52.578;13.426;2022-08-01T02:43:14;5.30;;;4.80;;
4756;SDS011;2392;52.578;13.426;2022-08-01T02:45:45;5.40;;;4.90;;
4756;SDS011;2392;52.578;13.426;2022-08-01T02:48:17;4.27;;;4.07;;
4756;SDS011;2392;52.578;13.426;2022-08-01T02:50:47;5.43;;;5.00;;
4756;SDS011;2392;52.578;13.426;2022-08-01T02:53:16;5.23;;;4.70;;
4756;SDS011;2392;52.578;13.426;2022-08-01T02:55:46;6.40;;;4.67;;
4756;SDS011;2392;52.578;13.426;2022-08-01T02:58:15;5.60;;;5.10;;
4756;SDS011;2392;52.578;13.426;2022-08-01T03:00:44;9.30;;;6.13;;
4756;SDS011;2392;52.578;13.426;2022-08-01T03:03:13;5.67;;;5.10;;
4756;SDS011;2392;52.578;13.426;2022-08-01T03:05:43;5.70;;;5.00;;
4756;SDS011;2392;52.578;13.426;2022-08-01T03:08:11;5.07;;;4.67;;
4756;SDS011;2392;52.578;13.426;2022-08-01T03:10:40;4.47;;;4.10;;
4756;SDS011;2392;52.578;13.426;2022-08-01T03:13:11;5.80;;;5.30;;
4756;SDS011;2392;52.578;13.426;2022-08-01T03:15:41;5.00;;;4.70;;
4756;SDS011;2392;52.578;13.426;2022-08-01T03:18:09;5.53;;;5.23;;
4756;SDS011;2392;52.578;13.426;2022-08-01T03:20:38;5.10;;;4.43;;
4756;SDS011;2392;52.578;13.426;2022-08-01T03:23:08;4.60;;;4.30;;
4756;SDS011;2392;52.578;13.426;2022-08-01T03:25:38;5.23;;;4.73;;
4756;SDS011;2392;52.578;13.426;2022-08-01T03:28:06;5.63;;;5.23;;
4756;SDS011;2392;52.578;13.426;2022-08-01T03:30:35;5.30;;;4.90;;
4756;SDS011;2392;52.578;13.426;2022-08-01T03:33:04;5.00;;;4.60;;
4756;SDS011;2392;52.578;13.426;2022-08-01T03:35:32;4.80;;;4.50;;
4756;SDS011;2392;52.578;13.426;2022-08-01T03:38:03;6.40;;;5.30;;
4756;SDS011;2392;52.578;13.426;2022-08-01T03:40:34;4.00;;;3.70;;
4756;SDS011;2392;52.578;13.426;2022-08-01T03:43:04;5.30;;;4.93;;
4756;SDS011;2392;52.578;13.426;2022-08-01T03:45:34;5.10;;;4.60;;
4756;SDS011;2392;52.578;13.426;2022-08-01T03:48:06;5.77;;;4.37;;
4756;SDS011;2392;52.578;13.426;2022-08-01T03:50:36;6.03;;;5.13;;
4756;SDS011;2392;52.578;13.426;2022-08-01T03:53:08;5.27;;;4.87;;
4756;SDS011;2392;52.578;13.426;2022-08-01T03:55:39;5.50;;;5.10;;
4756;SDS011;2392;52.578;13.426;2022-08-01T03:58:08;5.00;;;4.70;;
4756;SDS011;2392;52.578;13.426;2022-08-01T04:00:36;6.40;;;5.80;;
4756;SDS011;2392;52.578;13.426;2022-08-01T04:03:05;6.20;;;4.80;;
4756;SDS011;2392;52.578;13.426;2022-08-01T04:05:33;6.07;;;5.60;;
4756;SDS011;2392;52.578;13.426;2022-08-01T04:08:00;5.50;;;5.00;;
4756;SDS011;2392;52.578;13.426;2022-08-01T04:10:27;4.70;;;4.40;;
4756;SDS011;2392;52.578;13.426;2022-08-01T04:12:56;5.40;;;4.90;;
4756;SDS011;2392;52.578;13.426;2022-08-01T04:15:23;5.50;;;5.00;;
4756;SDS011;2392;52.578;13.426;2022-08-01T04:17:50;6.10;;;5.40;;
4756;SDS011;2392;52.578;13.426;2022-08-01T04:20:19;6.20;;;5.70;;
4756;SDS011;2392;52.578;13.426;2022-08-01T04:22:45;6.80;;;6.10;;
4756;SDS011;2392;52.578;13.426;2022-08-01T04:25:14;6.13;;;5.43;;
4756;SDS011;2392;52.578;13.426;2022-08-01T04:27:46;7.40;;;6.60;;
4756;SDS011;2392;52.578;13.426;2022-08-01T04:30:17;8.20;;;6.13;;
4756;SDS011;2392;52.578;13.426;2022-08-01T04:32:47;13.93;;;8.07;;
4756;SDS011;2392;52.578;13.426;2022-08-01T04:35:15;7.70;;;6.90;;
4756;SDS011;2392;52.578;13.426;2022-08-01T04:37:46;9.27;;;7.70;;
4756;SDS011;2392;52.578;13.426;2022-08-01T04:40:16;9.53;;;8.13;;
4756;SDS011;2392;52.578;13.426;2022-08-01T04:42:43;10.80;;;8.60;;
4756;SDS011;2392;52.578;13.426;2022-08-01T04:45:14;9.40;;;8.40;;
4756;SDS011;2392;52.578;13.426;2022-08-01T04:47:43;9.20;;;7.53;;
4756;SDS011;2392;52.578;13.426;2022-08-01T04:50:12;10.13;;;8.10;;
4756;SDS011;2392;52.578;13.426;2022-08-01T04:52:39;8.67;;;7.83;;
4756;SDS011;2392;52.578;13.426;2022-08-01T04:55:07;11.73;;;9.17;;
4756;SDS011;2392;52.578;13.426;2022-08-01T04:57:36;9.50;;;8.50;;
4756;SDS011;2392;52.578;13.426;2022-08-01T05:00:05;10.90;;;8.80;;
4756;SDS011;2392;52.578;13.426;2022-08-01T05:02:33;10.20;;;8.63;;
4756;SDS011;2392;52.578;13.426;2022-08-01T05:05:02;10.73;;;9.60;;
4756;SDS011;2392;52.578;13.426;2022-08-01T05:07:31;9.83;;;8.97;;
4756;SDS011;2392;52.578;13.426;2022-08-01T05:09:58;12.07;;;9.83;;
4756;SDS011;2392;52.578;13.426;2022-08-01T05:12:26;11.47;;;9.50;;
4756;SDS011;2392;52.578;13.426;2022-08-01T05:14:53;9.93;;;8.97;;
4756;SDS011;2392;52.578;13.426;2022-08-01T05:17:20;12.50;;;9.00;;
4756;SDS011;2392;52.578;13.426;2022-08-01T05:19:47;11.53;;;10.17;;
4756;SDS011;2392;52.578;13.426;2022-08-01T05:22:15;11.83;;;10.50;;
4756;SDS011;2392;52.578;13.426;2022-08-01T05:24:42;10.83;;;9.80;;
4756;SDS011;2392;52.578;13.426;2022-08-01T05:27:09;10.60;;;9.43;;
4756;SDS011;2392;52.578;13.426;2022-08-01T05:29:36;11.80;;;10.60;;
4756;SDS011;2392;52.578;13.426;2022-08-01T05:32:03;11.97;;;10.77;;
4756;SDS011;2392;52.578;13.426;2022-08-01T05:34:30;14.00;;;11.43;;
4756;SDS011;2392;52.578;13.426;2022-08-01T05:36:57;11.73;;;10.53;;
4756;SDS011;2392;52.578;13.426;2022-08-01T05:39:26;11.47;;;9.93;;
4756;SDS011;2392;52.578;13.426;2022-08-01T05:41:53;12.00;;;9.90;;
4756;SDS011;2392;52.578;13.426;2022-08-01T05:44:20;10.83;;;9.83;;
4756;SDS011;2392;52.578;13.426;2022-08-01T05:46:47;12.70;;;11.23;;
4756;SDS011;2392;52.578;13.426;2022-08-01T05:49:13;10.93;;;9.70;;
4756;SDS011;2392;52.578;13.426;2022-08-01T05:51:40;12.20;;;10.90;;
4756;SDS011;2392;52.578;13.426;2022-08-01T05:54:07;11.23;;;10.13;;
4756;SDS011;2392;52.578;13.426;2022-08-01T05:56:35;12.93;;;9.60;;
4756;SDS011;2392;52.578;13.426;2022-08-01T05:59:02;12.90;;;10.50;;
4756;SDS011;2392;52.578;13.426;2022-08-01T06:01:29;10.50;;;9.50;;
4756;SDS011;2392;52.578;13.426;2022-08-01T06:03:56;9.70;;;8.87;;
4756;SDS011;2392;52.578;13.426;2022-08-01T06:06:23;10.50;;;9.03;;
4756;SDS011;2392;52.578;13.426;2022-08-01T06:08:50;9.93;;;9.13;;
4756;SDS011;2392;52.578;13.426;2022-08-01T06:11:17;10.07;;;8.70;;
4756;SDS011;2392;52.578;13.426;2022-08-01T06:13:46;8.80;;;7.90;;
4756;SDS011;2392;52.578;13.426;2022-08-01T06:16:13;8.20;;;7.50;;
4756;SDS011;2392;52.578;13.426;2022-08-01T06:18:39;8.43;;;7.73;;
4756;SDS011;2392;52.578;13.426;2022-08-01T06:21:06;7.83;;;7.10;;
4756;SDS011;2392;52.578;13.426;2022-08-01T06:23:33;8.83;;;7.00;;
4756;SDS011;2392;52.578;13.426;2022-08-01T06:26:00;9.07;;;8.37;;
4756;SDS011;2392;52.578;13.426;2022-08-01T06:28:27;7.50;;;6.83;;
4756;SDS011;2392;52.578;13.426;2022-08-01T06:30:56;9.10;;;7.00;;
4756;SDS011;2392;52.578;13.426;2022-08-01T06:33:24;7.70;;;7.07;;
4756;SDS011;2392;52.578;13.426;2022-08-01T06:35:51;9.90;;;8.00;;
4756;SDS011;2392;52.578;13.426;2022-08-01T06:38:18;7.70;;;7.00;;
4756;SDS011;2392;52.578;13.426;2022-08-01T06:40:45;6.93;;;6.00;;
4756;SDS011;2392;52.578;13.426;2022-08-01T06:43:12;7.50;;;5.97;;
4756;SDS011;2392;52.578;13.426;2022-08-01T06:45:39;6.43;;;6.00;;
4756;SDS011;2392;52.578;13.426;2022-08-01T06:48:07;6.70;;;6.07;;
4756;SDS011;2392;52.578;13.426;2022-08-01T06:50:34;6.57;;;5.93;;
4756;SDS011;2392;52.578;13.426;2022-08-01T06:53:02;5.57;;;5.17;;
4756;SDS011;2392;52.578;13.426;2022-08-01T06:55:29;5.17;;;4.77;;
4756;SDS011;2392;52.578;13.426;2022-08-01T06:57:56;5.40;;;5.00;;
4756;SDS011;2392;52.578;13.426;2022-08-01T07:00:23;5.67;;;5.17;;
4756;SDS011;2392;52.578;13.426;2022-08-01T07:02:52;5.60;;;5.10;;
4756;SDS011;2392;52.578;13.426;2022-08-01T07:05:22;5.70;;;5.20;;
4756;SDS011;2392;52.578;13.426;2022-08-01T07:07:49;4.97;;;4.57;;
4756;SDS011;2392;52.578;13.426;2022-08-01T07:10:16;4.67;;;3.97;;
4756;SDS011;2392;52.578;13.426;2022-08-01T07:12:43;4.40;;;4.10;;
4756;SDS011;2392;52.578;13.426;2022-08-01T07:15:10;3.90;;;3.60;;
4756;SDS011;2392;52.578;13.426;2022-08-01T07:17:38;4.27;;;3.97;;
4756;SDS011;2392;52.578;13.426;2022-08-01T07:20:06;4.90;;;4.50;;
4756;SDS011;2392;52.578;13.426;2022-08-01T07:22:35;4.03;;;3.83;;
4756;SDS011;2392;52.578;13.426;2022-08-01T07:25:03;4.47;;;4.10;;
4756;SDS011;2392;52.578;13.426;2022-08-01T07:27:31;5.33;;;4.83;;
4756;SDS011;2392;52.578;13.426;2022-08-01T07:29:58;6.60;;;4.60;;
4756;SDS011;2392;52.578;13.426;2022-08-01T07:32:25;5.50;;;4.73;;
4756;SDS011;2392;52.578;13.426;2022-08-01T07:34:54;4.37;;;4.17;;
4756;SDS011;2392;52.578;13.426;2022-08-01T07:37:21;4.40;;;4.10;;
4756;SDS011;2392;52.578;13.426;2022-08-01T07:39:50;4.83;;;4.43;;
4756;SDS011;2392;52.578;13.426;2022-08-01T07:42:17;4.90;;;4.60;;
4756;SDS011;2392;52.578;13.426;2022-08-01T07:44:44;4.97;;;4.57;;
4756;SDS011;2392;52.578;13.426;2022-08-01T07:47:11;4.77;;;4.20;;
4756;SDS011;2392;52.578;13.426;2022-08-01T07:49:37;3.87;;;3.67;;
4756;SDS011;2392;52.578;13.426;2022-08-01T07:52:05;3.90;;;3.67;;
4756;SDS011;2392;52.578;13.426;2022-08-01T07:54:32;4.87;;;4.37;;
4756;SDS011;2392;52.578;13.426;2022-08-01T07:57:01;4.50;;;4.17;;
4756;SDS011;2392;52.578;13.426;2022-08-01T07:59:29;12.20;;;4.70;;
4756;SDS011;2392;52.578;13.426;2022-08-01T08:01:56;4.57;;;4.20;;
4756;SDS011;2392;52.578;13.426;2022-08-01T08:04:23;4.33;;;4.03;;
4756;SDS011;2392;52.578;13.426;2022-08-01T08:06:49;7.73;;;3.87;;
4756;SDS011;2392;52.578;13.426;2022-08-01T08:09:18;4.27;;;3.97;;
4756;SDS011;2392;52.578;13.426;2022-08-01T08:11:45;5.10;;;4.20;;
4756;SDS011;2392;52.578;13.426;2022-08-01T08:14:14;4.30;;;3.90;;
4756;SDS011;2392;52.578;13.426;2022-08-01T08:16:41;3.70;;;3.40;;
4756;SDS011;2392;52.578;13.426;2022-08-01T08:19:08;6.80;;;3.27;;
4756;SDS011;2392;52.578;13.426;2022-08-01T08:21:35;3.73;;;3.53;;
4756;SDS011;2392;52.578;13.426;2022-08-01T08:24:02;4.40;;;4.10;;
4756;SDS011;2392;52.578;13.426;2022-08-01T08:26:49;3.53;;;3.33;;
4756;SDS011;2392;52.578;13.426;2022-08-01T08:29:19;3.83;;;3.53;;
4756;SDS011;2392;52.578;13.426;2022-08-01T08:31:46;3.30;;;3.10;;
4756;SDS011;2392;52.578;13.426;2022-08-01T08:34:14;3.30;;;3.00;;
4756;SDS011;2392;52.578;13.426;2022-08-01T08:36:41;3.63;;;3.43;;
4756;SDS011;2392;52.578;13.426;2022-08-01T08:39:08;3.40;;;3.10;;
4756;SDS011;2392;52.578;13.426;2022-08-01T08:41:35;3.33;;;3.13;;
4756;SDS011;2392;52.578;13.426;2022-08-01T08:44:02;3.07;;;2.97;;
4756;SDS011;2392;52.578;13.426;2022-08-01T08:46:31;3.53;;;3.33;;
4756;SDS011;2392;52.578;13.426;2022-08-01T08:48:59;4.07;;;3.23;;
4756;SDS011;2392;52.578;13.426;2022-08-01T08:51:27;2.90;;;2.60;;
4756;SDS011;2392;52.578;13.426;2022-08-01T08:53:57;2.00;;;1.90;;
4756;SDS011;2392;52.578;13.426;2022-08-01T08:56:24;5.43;;;2.50;;
4756;SDS011;2392;52.578;13.426;2022-08-01T08:58:55;2.57;;;2.47;;
4756;SDS011;2392;52.578;13.426;2022-08-01T09:01:22;2.37;;;2.27;;
4756;SDS011;2392;52.578;13.426;2022-08-01T09:03:51;2.77;;;2.57;;
4756;SDS011;2392;52.578;13.426;2022-08-01T09:06:18;2.03;;;1.93;;
4756;SDS011;2392;52.578;13.426;2022-08-01T09:08:45;2.90;;;2.60;;
4756;SDS011;2392;52.578;13.426;2022-08-01T09:11:12;2.13;;;1.93;;
4756;SDS011;2392;52.578;13.426;2022-08-01T09:13:39;3.73;;;2.20;;
4756;SDS011;2392;52.578;13.426;2022-08-01T09:16:06;1.67;;;1.67;;
4756;SDS011;2392;52.578;13.426;2022-08-01T09:18:33;1.90;;;1.80;;
4756;SDS011;2392;52.578;13.426;2022-08-01T09:21:13;1.60;;;1.60;;
4756;SDS011;2392;52.578;13.426;2022-08-01T09:23:42;2.47;;;1.80;;
4756;SDS011;2392;52.578;13.426;2022-08-01T09:26:11;1.90;;;1.80;;
4756;SDS011;2392;52.578;13.426;2022-08-01T09:28:39;2.80;;;1.70;;
4756;SDS011;2392;52.578;13.426;2022-08-01T09:31:08;1.73;;;1.63;;
4756;SDS011;2392;52.578;13.426;2022-08-01T09:33:47;1.93;;;1.80;;
4756;SDS011;2392;52.578;13.426;2022-08-01T09:36:16;2.40;;;2.20;;
4756;SDS011;2392;52.578;13.426;2022-08-01T09:38:44;2.27;;;2.00;;
4756;SDS011;2392;52.578;13.426;2022-08-01T09:41:11;2.50;;;2.40;;
4756;SDS011;2392;52.578;13.426;2022-08-01T09:43:38;3.73;;;2.10;;
4756;SDS011;2392;52.578;13.426;2022-08-01T09:46:05;2.53;;;2.43;;
4756;SDS011;2392;52.578;13.426;2022-08-01T09:48:37;2.43;;;2.33;;
4756;SDS011;2392;52.578;13.426;2022-08-01T09:51:05;6.07;;;3.00;;
4756;SDS011;2392;52.578;13.426;2022-08-01T09:53:44;3.30;;;2.83;;
4756;SDS011;2392;52.578;13.426;2022-08-01T09:56:13;6.63;;;2.60;;
4756;SDS011;2392;52.578;13.426;2022-08-01T09:58:48;3.20;;;2.67;;
4756;SDS011;2392;52.578;13.426;2022-08-01T10:01:16;3.07;;;2.93;;
4756;SDS011;2392;52.578;13.426;2022-08-01T10:03:43;2.97;;;2.70;;
4756;SDS011;2392;52.578;13.426;2022-08-01T10:06:20;3.40;;;2.80;;
4756;SDS011;2392;52.578;13.426;2022-08-01T10:08:48;4.20;;;2.40;;
4756;SDS011;2392;52.578;13.426;2022-08-01T10:11:15;3.20;;;2.73;;
4756;SDS011;2392;52.578;13.426;2022-08-01T10:13:45;5.57;;;2.60;;
4756;SDS011;2392;52.578;13.426;2022-08-01T10:16:13;3.47;;;3.27;;
4756;SDS011;2392;52.578;13.426;2022-08-01T10:18:41;4.07;;;2.70;;
4756;SDS011;2392;52.578;13.426;2022-08-01T10:21:09;3.10;;;2.90;;
4756;SDS011;2392;52.578;13.426;2022-08-01T10:23:37;3.20;;;2.90;;
4756;SDS011;2392;52.578;13.426;2022-08-01T10:26:05;4.60;;;3.03;;
4756;SDS011;2392;52.578;13.426;2022-08-01T10:28:34;3.10;;;2.90;;
4756;SDS011;2392;52.578;13.426;2022-08-01T10:31:02;3.03;;;2.60;;
4756;SDS011;2392;52.578;13.426;2022-08-01T10:33:29;2.43;;;2.33;;
4756;SDS011;2392;52.578;13.426;2022-08-01T10:35:57;2.80;;;2.33;;
4756;SDS011;2392;52.578;13.426;2022-08-01T10:38:24;2.80;;;2.70;;
4756;SDS011;2392;52.578;13.426;2022-08-01T10:40:53;2.93;;;2.40;;
4756;SDS011;2392;52.578;13.426;2022-08-01T10:43:23;3.00;;;2.80;;
4756;SDS011;2392;52.578;13.426;2022-08-01T10:45:50;2.80;;;2.60;;
4756;SDS011;2392;52.578;13.426;2022-08-01T10:48:18;4.73;;;2.73;;
4756;SDS011;2392;52.578;13.426;2022-08-01T10:50:51;3.50;;;2.83;;
4756;SDS011;2392;52.578;13.426;2022-08-01T10:53:20;3.13;;;2.30;;
4756;SDS011;2392;52.578;13.426;2022-08-01T10:55:49;2.37;;;2.27;;
4756;SDS011;2392;52.578;13.426;2022-08-01T10:58:26;4.13;;;2.17;;
4756;SDS011;2392;52.578;13.426;2022-08-01T11:01:17;2.23;;;1.77;;
4756;SDS011;2392;52.578;13.426;2022-08-01T11:06:36;1.93;;;1.83;;
4756;SDS011;2392;52.578;13.426;2022-08-01T11:09:15;1.90;;;1.60;;
4756;SDS011;2392;52.578;13.426;2022-08-01T11:11:59;1.80;;;1.70;;
4756;SDS011;2392;52.578;13.426;2022-08-01T11:14:31;2.30;;;2.10;;
4756;SDS011;2392;52.578;13.426;2022-08-01T11:20:09;2.90;;;1.80;;
4756;SDS011;2392;52.578;13.426;2022-08-01T11:28:36;2.33;;;2.13;;
4756;SDS011;2392;52.578;13.426;2022-08-01T11:33:59;2.90;;;1.73;;
4756;SDS011;2392;52.578;13.426;2022-08-01T11:36:26;1.93;;;1.73;;
4756;SDS011;2392;52.578;13.426;2022-08-01T11:39:15;2.03;;;1.90;;
4756;SDS011;2392;52.578;13.426;2022-08-01T11:41:44;2.30;;;2.20;;
4756;SDS011;2392;52.578;13.426;2022-08-01T11:44:15;2.40;;;2.20;;
4756;SDS011;2392;52.578;13.426;2022-08-01T11:46:46;2.10;;;2.00;;
4756;SDS011;2392;52.578;13.426;2022-08-01T11:49:25;4.40;;;1.50;;
4756;SDS011;2392;52.578;13.426;2022-08-01T11:52:01;2.03;;;1.93;;
4756;SDS011;2392;52.578;13.426;2022-08-01T11:54:33;2.40;;;2.20;;
4756;SDS011;2392;52.578;13.426;2022-08-01T11:57:03;1.40;;;1.30;;
4756;SDS011;2392;52.578;13.426;2022-08-01T11:59:35;1.50;;;1.40;;
4756;SDS011;2392;52.578;13.426;2022-08-01T12:02:08;2.17;;;1.80;;
4756;SDS011;2392;52.578;13.426;2022-08-01T12:04:48;2.00;;;1.90;;
4756;SDS011;2392;52.578;13.426;2022-08-01T12:07:18;2.50;;;1.67;;
4756;SDS011;2392;52.578;13.426;2022-08-01T12:09:46;6.53;;;2.03;;
4756;SDS011;2392;52.578;13.426;2022-08-01T12:12:16;2.73;;;1.90;;
4756;SDS011;2392;52.578;13.426;2022-08-01T12:14:44;7.50;;;1.73;;
4756;SDS011;2392;52.578;13.426;2022-08-01T12:17:19;1.53;;;1.53;;
4756;SDS011;2392;52.578;13.426;2022-08-01T12:19:48;1.77;;;1.67;;
4756;SDS011;2392;52.578;13.426;2022-08-01T12:22:15;2.30;;;2.20;;
4756;SDS011;2392;52.578;13.426;2022-08-01T12:24:42;2.33;;;1.53;;
4756;SDS011;2392;52.578;13.426;2022-08-01T12:27:09;2.13;;;1.77;;
4756;SDS011;2392;52.578;13.426;2022-08-01T12:29:38;3.27;;;1.60;;
4756;SDS011;2392;52.578;13.426;2022-08-01T12:32:24;1.63;;;1.53;;
4756;SDS011;2392;52.578;13.426;2022-08-01T12:34:53;3.03;;;1.83;;
4756;SDS011;2392;52.578;13.426;2022-08-01T12:37:20;1.83;;;1.73;;
4756;SDS011;2392;52.578;13.426;2022-08-01T12:39:48;1.70;;;1.67;;
4756;SDS011;2392;52.578;13.426;2022-08-01T12:42:15;1.70;;;1.60;;
4756;SDS011;2392;52.578;13.426;2022-08-01T12:44:43;1.57;;;1.47;;
4756;SDS011;2392;52.578;13.426;2022-08-01T12:47:12;1.90;;;1.80;;
4756;SDS011;2392;52.578;13.426;2022-08-01T12:49:41;1.53;;;1.50;;
4756;SDS011;2392;52.578;13.426;2022-08-01T12:52:10;1.87;;;1.70;;
4756;SDS011;2392;52.578;13.426;2022-08-01T12:57:35;1.73;;;1.63;;
4756;SDS011;2392;52.578;13.426;2022-08-01T13:00:07;1.90;;;1.80;;
4756;SDS011;2392;52.578;13.426;2022-08-01T13:02:36;2.67;;;1.47;;
4756;SDS011;2392;52.578;13.426;2022-08-01T13:05:05;3.03;;;2.83;;
4756;SDS011;2392;52.578;13.426;2022-08-01T13:07:40;3.03;;;1.83;;
4756;SDS011;2392;52.578;13.426;2022-08-01T13:10:09;1.60;;;1.50;;
4756;SDS011;2392;52.578;13.426;2022-08-01T13:12:38;3.80;;;1.80;;
4756;SDS011;2392;52.578;13.426;2022-08-01T13:15:22;1.50;;;1.40;;
4756;SDS011;2392;52.578;13.426;2022-08-01T13:17:51;3.30;;;1.67;;
4756;SDS011;2392;52.578;13.426;2022-08-01T13:20:23;4.80;;;1.50;;
4756;SDS011;2392;52.578;13.426;2022-08-01T13:22:55;2.20;;;2.10;;
4756;SDS011;2392;52.578;13.426;2022-08-01T13:25:50;2.17;;;1.60;;
4756;SDS011;2392;52.578;13.426;2022-08-01T13:28:19;2.20;;;1.60;;
4756;SDS011;2392;52.578;13.426;2022-08-01T13:30:54;2.93;;;2.57;;
4756;SDS011;2392;52.578;13.426;2022-08-01T13:33:23;2.93;;;1.60;;
4756;SDS011;2392;52.578;13.426;2022-08-01T13:35:53;4.00;;;1.83;;
4756;SDS011;2392;52.578;13.426;2022-08-01T13:38:21;1.93;;;1.83;;
4756;SDS011;2392;52.578;13.426;2022-08-01T13:41:03;3.30;;;2.10;;
4756;SDS011;2392;52.578;13.426;2022-08-01T13:43:30;2.60;;;1.90;;
4756;SDS011;2392;52.578;13.426;2022-08-01T13:45:57;4.23;;;3.93;;
4756;SDS011;2392;52.578;13.426;2022-08-01T13:48:24;3.40;;;2.70;;
4756;SDS011;2392;52.578;13.426;2022-08-01T13:50:52;2.57;;;2.37;;
4756;SDS011;2392;52.578;13.426;2022-08-01T13:53:19;3.33;;;2.90;;
4756;SDS011;2392;52.578;13.426;2022-08-01T13:55:46;2.87;;;2.70;;
4756;SDS011;2392;52.578;13.426;2022-08-01T13:58:13;3.10;;;2.80;;
4756;SDS011;2392;52.578;13.426;2022-08-01T14:00:40;2.00;;;1.90;;
4756;SDS011;2392;52.578;13.426;2022-08-01T14:03:07;2.47;;;2.37;;
4756;SDS011;2392;52.578;13.426;2022-08-01T14:05:34;2.20;;;2.10;;
4756;SDS011;2392;52.578;13.426;2022-08-01T14:08:03;2.60;;;2.10;;
4756;SDS011;2392;52.578;13.426;2022-08-01T14:10:30;2.17;;;2.07;;
4756;SDS011;2392;52.578;13.426;2022-08-01T14:12:57;3.10;;;1.80;;
4756;SDS011;2392;52.578;13.426;2022-08-01T14:15:24;2.90;;;2.00;;
4756;SDS011;2392;52.578;13.426;2022-08-01T14:17:51;1.97;;;1.87;;
4756;SDS011;2392;52.578;13.426;2022-08-01T14:20:18;2.10;;;1.90;;
4756;SDS011;2392;52.578;13.426;2022-08-01T14:22:45;2.20;;;2.10;;
4756;SDS011;2392;52.578;13.426;2022-08-01T14:25:14;2.53;;;2.33;;
4756;SDS011;2392;52.578;13.426;2022-08-01T14:27:43;2.60;;;2.10;;
4756;SDS011;2392;52.578;13.426;2022-08-01T14:30:10;2.10;;;2.00;;
4756;SDS011;2392;52.578;13.426;2022-08-01T14:32:38;4.97;;;2.10;;
4756;SDS011;2392;52.578;13.426;2022-08-01T14:35:05;2.60;;;1.80;;
4756;SDS011;2392;52.578;13.426;2022-08-01T14:37:33;1.90;;;1.80;;
4756;SDS011;2392;52.578;13.426;2022-08-01T14:40:00;2.10;;;1.90;;
4756;SDS011;2392;52.578;13.426;2022-08-01T14:42:31;2.73;;;2.53;;
4756;SDS011;2392;52.578;13.426;2022-08-01T14:44:58;1.90;;;1.80;;
4756;SDS011;2392;52.578;13.426;2022-08-01T14:47:25;1.97;;;1.87;;
4756;SDS011;2392;52.578;13.426;2022-08-01T14:49:52;2.50;;;1.93;;
4756;SDS011;2392;52.578;13.426;2022-08-01T14:52:19;3.43;;;1.53;;
4756;SDS011;2392;52.578;13.426;2022-08-01T14:54:46;1.83;;;1.60;;
4756;SDS011;2392;52.578;13.426;2022-08-01T14:57:13;2.43;;;1.63;;
4756;SDS011;2392;52.578;13.426;2022-08-01T14:59:44;2.50;;;1.90;;
4756;SDS011;2392;52.578;13.426;2022-08-01T15:02:11;1.80;;;1.70;;
4756;SDS011;2392;52.578;13.426;2022-08-01T15:04:42;1.63;;;1.53;;
4756;SDS011;2392;52.578;13.426;2022-08-01T15:07:09;1.73;;;1.53;;
4756;SDS011;2392;52.578;13.426;2022-08-01T15:09:36;1.33;;;1.23;;
4756;SDS011;2392;52.578;13.426;2022-08-01T15:12:03;1.70;;;1.70;;
4756;SDS011;2392;52.578;13.426;2022-08-01T15:14:30;3.30;;;1.77;;
4756;SDS011;2392;52.578;13.426;2022-08-01T15:17:17;1.70;;;1.60;;
4756;SDS011;2392;52.578;13.426;2022-08-01T15:19:45;1.40;;;1.30;;
4756;SDS011;2392;52.578;13.426;2022-08-01T15:22:13;1.27;;;1.27;;
4756;SDS011;2392;52.578;13.426;2022-08-01T15:24:40;3.80;;;1.10;;
4756;SDS011;2392;52.578;13.426;2022-08-01T15:27:07;1.50;;;1.40;;
4756;SDS011;2392;52.578;13.426;2022-08-01T15:29:35;1.27;;;1.00;;